Time;durP1;ratioP1;P1;durP2;ratioP2;P2;SDS_P1;SDS_P2;PMS_P1;PMS_P2;Temp;Humidity;BMP_temperature;BMP_pressure;BME280_temperature;BME280_humidity;BME280_pressure;Samples;Min_cycle;Max_cycle;Signal;HPM_P1;HPM_P2
2023/11/25 00:01:56;;;;;;;4.05;1.70;;;;;;;4.66;100.00;101512.44;6084968;19;20495;-73
2023/11/25 00:04:01;;;;;;;3.30;1.33;;;;;;;4.64;100.00;101501.16;6082442;19;20170;-75
2023/11/25 00:06:10;;;;;;;5.50;1.33;;;;;;;4.59;100.00;101495.09;6080380;19;20109;-73
2023/11/25 00:08:15;;;;;;;6.03;1.73;;;;;;;4.47;100.00;101489.94;6084105;19;20010;-75
2023/11/25 00:10:18;;;;;;;5.38;1.65;;;;;;;4.45;100.00;101476.97;6080996;19;20495;-74
2023/11/25 00:12:23;;;;;;;;;;;;;;;4.46;100.00;101467.41;6083096;19;20007;-74
2023/11/25 00:14:28;;;;;;;2.17;1.25;;;;;;;4.36;100.00;101471.78;6085751;19;19912;-75
2023/11/25 00:16:33;;;;;;;2.90;1.42;;;;;;;4.33;100.00;101472.66;6084636;19;20035;-74
2023/11/25 00:18:35;;;;;;;5.88;2.28;;;;;;;4.27;100.00;101472.69;6084297;19;20011;-74
2023/11/25 00:20:41;;;;;;;5.10;2.13;;;;;;;4.22;100.00;101484.00;6087823;19;20438;-75
2023/11/25 00:22:46;;;;;;;6.85;2.58;;;;;;;4.23;100.00;101472.72;6081405;19;20018;-74
2023/11/25 00:24:51;;;;;;;4.07;1.83;;;;;;;4.30;100.00;101467.47;6084327;19;20016;-74
2023/11/25 00:26:56;;;;;;;3.17;1.23;;;;;;;4.24;100.00;101472.72;6085228;19;20010;-74
2023/11/25 00:29:01;;;;;;;2.33;1.52;;;;;;;4.27;100.00;101475.31;6083487;19;20031;-74
2023/11/25 00:31:06;;;;;;;3.15;1.13;;;;;;;4.19;100.00;101482.28;6084219;19;20015;-74
2023/11/25 00:33:11;;;;;;;6.65;1.83;;;;;;;4.07;100.00;101472.75;6085468;19;20007;-74
2023/11/25 00:35:14;;;;;;;3.90;1.60;;;;;;;4.01;100.00;101480.59;6082986;19;20023;-74
2023/11/25 00:37:22;;;;;;;7.85;1.92;;;;;;;3.87;100.00;101478.03;6082140;19;20003;-75
2023/11/25 00:39:29;;;;;;;6.78;3.13;;;;;;;3.77;100.00;101476.34;6084735;19;20066;-74
2023/11/25 00:41:38;;;;;;;6.70;2.08;;;;;;;3.70;100.00;101469.41;6083151;19;20035;-74
2023/11/25 00:43:43;;;;;;;9.27;1.88;;;;;;;3.59;100.00;101473.78;6083115;19;20034;-73
2023/11/25 00:45:49;;;;;;;3.05;1.88;;;;;;;3.63;100.00;101476.34;6085900;19;20010;-73
2023/11/25 00:47:56;;;;;;;6.35;1.20;;;;;;;3.59;100.00;101473.78;6083149;19;20073;-74
2023/11/25 00:50:00;;;;;;;8.77;2.22;;;;;;;3.58;100.00;101472.03;6083234;19;20006;-74
2023/11/25 00:52:06;;;;;;;5.93;2.15;;;;;;;3.56;100.00;101474.63;6083659;19;20740;-74
2023/11/25 00:54:12;;;;;;;7.63;1.85;;;;;;;3.44;100.00;101470.31;6083379;19;20718;-72
2023/11/25 00:56:20;;;;;;;13.35;2.53;;;;;;;3.49;100.00;101467.72;6085483;19;20306;-73
2023/11/25 00:58:24;;;;;;;6.07;1.98;;;;;;;3.39;100.00;101472.03;6083014;19;20006;-74
2023/11/25 01:00:30;;;;;;;6.18;2.33;;;;;;;3.27;100.00;101475.53;6081545;19;20011;-74
2023/11/25 01:02:36;;;;;;;8.98;2.05;;;;;;;3.36;100.00;101473.78;6083204;19;20022;-75
2023/11/25 01:04:39;;;;;;;12.60;2.38;;;;;;;3.34;100.00;101478.09;6075963;19;20312;-73
2023/11/25 01:06:47;;;;;;;4.78;1.52;;;;;;;3.45;100.00;101479.84;6078133;19;20718;-73
2023/11/25 01:08:53;;;;;;;3.33;1.80;;;;;;;3.97;100.00;101487.53;6082394;19;20524;-73
2023/11/25 01:11:00;;;;;;;17.25;2.85;;;;;;;4.08;100.00;101491.84;6080591;19;20445;-74
2023/11/25 01:13:10;;;;;;;10.68;2.60;;;;;;;4.23;100.00;101483.13;6084949;19;20102;-75
2023/11/25 01:15:16;;;;;;;15.40;3.08;;;;;;;4.50;100.00;101471.72;6082165;19;20045;-74
2023/11/25 01:17:26;;;;;;;8.77;2.42;;;;;;;4.52;100.00;101488.19;6080925;19;20623;-75
2023/11/25 01:19:32;;;;;;;4.25;1.85;;;;;;;4.64;100.00;101480.31;6080651;19;20014;-76
2023/11/25 01:21:38;;;;;;;14.00;2.92;;;;;;;4.91;100.00;101475.81;6082945;19;20070;-76
2023/11/25 01:23:45;;;;;;;7.35;2.60;;;;;;;5.19;100.00;101477.34;6081409;19;20389;-75
2023/11/25 01:25:50;;;;;;;10.90;2.05;;;;;;;5.17;100.00;101481.69;6083389;19;20011;-75
2023/11/25 01:27:58;;;;;;;7.07;1.98;;;;;;;5.20;100.00;101484.25;6082082;19;20002;-74
2023/11/25 01:30:07;;;;;;;12.00;3.10;;;;;;;5.37;100.00;101486.75;6081321;19;20086;-74
2023/11/25 01:32:09;;;;;;;10.75;3.50;;;;;;;5.34;100.00;101483.28;6082313;19;20058;-74
2023/11/25 01:34:14;;;;;;;6.30;1.50;;;;;;;5.27;100.00;101488.56;6086317;19;20042;-74
2023/11/25 01:36:17;;;;;;;11.30;2.40;;;;;;;5.29;100.00;101491.13;6084111;19;20018;-74
2023/11/25 01:38:23;;;;;;;7.55;1.90;;;;;;;5.29;100.00;101483.31;6079701;19;20015;-72
2023/11/25 01:40:28;;;;;;;29.42;3.30;;;;;;;5.22;100.00;101484.28;6083645;19;20340;-74
2023/11/25 01:42:33;;;;;;;7.00;2.17;;;;;;;5.22;100.00;101489.47;6082826;19;20033;-73
2023/11/25 01:44:37;;;;;;;13.43;3.05;;;;;;;5.20;100.00;101488.63;6081835;19;20041;-72
2023/11/25 01:46:47;;;;;;;15.43;2.75;;;;;;;5.24;100.00;101485.13;6083564;19;20549;-72
2023/11/25 01:48:52;;;;;;;11.52;3.47;;;;;;;5.25;100.00;101487.69;6079570;19;20010;-73
2023/11/25 01:50:57;;;;;;;7.13;2.55;;;;;;;5.20;100.00;101484.25;6082156;19;20253;-73
2023/11/25 01:53:03;;;;;;;6.93;2.05;;;;;;;5.11;100.00;101489.56;6080273;19;20027;-73
2023/11/25 01:55:10;;;;;;;9.77;2.28;;;;;;;5.14;100.00;101493.88;6082683;19;20011;-74
2023/11/25 01:57:18;;;;;;;8.75;2.80;;;;;;;5.04;100.00;101485.25;6082935;19;20049;-74
2023/11/25 01:59:25;;;;;;;5.60;2.17;;;;;;;4.84;100.00;101488.88;6082537;19;20011;-73
2023/11/25 02:01:31;;;;;;;11.25;3.35;;;;;;;5.03;100.00;101491.38;6083394;19;20019;-75
2023/11/25 02:03:40;;;;;;;13.95;3.00;;;;;;;5.00;100.00;101500.06;6081617;19;20630;-76
2023/11/25 02:05:44;;;;;;;12.27;2.00;;;;;;;5.45;100.00;101492.75;6079151;19;20070;-72
2023/11/25 02:07:49;;;;;;;8.32;1.85;;;;;;;5.70;98.65;101503.81;6086371;19;20010;-73
2023/11/25 02:09:55;;;;;;;9.27;2.38;;;;;;;5.88;97.12;101496.69;6089830;19;20023;-76
2023/11/25 02:12:02;;;;;;;8.63;2.08;;;;;;;5.83;98.19;101506.31;6090102;19;20329;-75
2023/11/25 02:14:09;;;;;;;4.68;1.70;;;;;;;5.84;96.85;101488.00;6090974;19;20017;-76
2023/11/25 02:16:15;;;;;;;8.50;2.13;;;;;;;5.77;96.54;101494.19;6089219;19;20319;-76
2023/11/25 02:18:22;;;;;;;6.30;1.85;;;;;;;5.82;91.86;101479.38;6087612;19;20046;-75
2023/11/25 02:20:41;;;;;;;1.17;0.98;;;;;;;5.86;90.26;101475.81;6081484;19;20507;-74
2023/11/25 02:22:59;;;;;;;5.38;1.15;;;;;;;5.85;90.54;101473.25;6086581;19;20006;-75
2023/11/25 02:25:05;;;;;;;2.72;1.30;;;;;;;5.76;91.85;101465.50;6084815;19;20019;-75
2023/11/25 02:27:10;;;;;;;7.18;1.80;;;;;;;5.68;92.68;101469.06;6089123;19;20268;-75
2023/11/25 02:29:15;;;;;;;7.35;1.55;;;;;;;5.68;92.99;101463.84;6087895;19;20014;-75
2023/11/25 02:31:22;;;;;;;10.55;2.05;;;;;;;5.58;93.85;101467.44;6087226;19;20017;-75
2023/11/25 02:33:36;;;;;;;10.30;3.22;;;;;;;5.54;94.26;101470.09;6087617;19;20023;-75
2023/11/25 02:35:42;;;;;;;3.92;1.58;;;;;;;5.38;96.25;101470.22;6088697;19;20006;-76
2023/11/25 02:37:47;;;;;;;4.75;2.00;;;;;;;5.35;96.11;101469.41;6087145;19;20002;-71
2023/11/25 02:39:55;;;;;;;9.93;2.58;;;;;;;5.25;97.29;101474.66;6088738;19;20026;-71
2023/11/25 02:42:00;;;;;;;5.78;1.65;;;;;;;5.17;97.85;101466.06;6087133;19;20056;-71
2023/11/25 02:44:03;;;;;;;4.97;1.75;;;;;;;5.18;97.69;101469.53;6087707;19;20018;-71
2023/11/25 02:46:08;;;;;;;4.15;1.75;;;;;;;5.07;99.04;101462.66;6089283;19;20002;-72
2023/11/25 02:48:15;;;;;;;12.05;3.13;;;;;;;5.10;99.02;101468.72;6082776;19;20323;-72
2023/11/25 02:50:21;;;;;;;15.40;2.92;;;;;;;4.98;99.88;101467.94;6086277;19;20518;-73
2023/11/25 02:52:24;;;;;;;2.88;1.45;;;;;;;5.01;99.96;101470.53;6085874;19;20022;-72
2023/11/25 02:54:31;;;;;;;8.80;1.90;;;;;;;5.02;99.99;101461.81;6081272;19;20013;-71
2023/11/25 02:56:39;;;;;;;8.18;1.95;;;;;;;5.03;99.73;101460.09;6087393;19;20455;-73
2023/11/25 02:58:42;;;;;;;7.90;1.45;;;;;;;5.21;96.52;101456.47;6081791;19;20018;-73
2023/11/25 03:00:49;;;;;;;3.95;2.00;;;;;;;5.26;95.39;101458.16;6085935;19;20038;-74
2023/11/25 03:03:00;;;;;;;12.40;1.95;;;;;;;5.08;97.27;101463.50;6084503;19;20372;-74
2023/11/25 03:05:08;;;;;;;8.18;2.08;;;;;;;5.18;94.80;101454.75;6082950;19;20023;-74
2023/11/25 03:07:13;;;;;;;4.75;2.25;;;;;;;5.22;93.13;101458.22;6086883;19;20341;-74
2023/11/25 03:09:18;;;;;;;11.25;2.75;;;;;;;5.15;93.46;101456.53;6087383;19;20014;-73
2023/11/25 03:11:23;;;;;;;6.60;1.48;;;;;;;5.22;91.75;101456.47;6081203;19;20002;-74
2023/11/25 03:13:31;;;;;;;6.90;2.05;;;;;;;5.28;90.93;101456.41;6086557;19;20018;-74
2023/11/25 03:15:34;;;;;;;5.97;2.45;;;;;;;5.20;91.29;101454.75;6087171;19;20515;-76
2023/11/25 03:17:39;;;;;;;5.75;1.85;;;;;;;5.25;91.02;101456.44;6080125;19;20015;-72
2023/11/25 03:19:44;;;;;;;7.88;1.98;;;;;;;5.21;91.38;101452.16;6084731;19;20002;-72
2023/11/25 03:21:50;;;;;;;7.43;2.08;;;;;;;5.11;92.06;101442.69;6085242;19;20042;-72
2023/11/25 03:23:56;;;;;;;7.57;1.77;;;;;;;4.95;93.00;101438.44;6086375;19;20068;-72
2023/11/25 03:25:58;;;;;;;8.57;2.13;;;;;;;4.94;93.04;101441.94;6087034;19;20038;-72
2023/11/25 03:28:05;;;;;;;11.77;2.22;;;;;;;4.84;94.57;101430.72;6085692;19;20007;-72
2023/11/25 03:30:15;;;;;;;2.88;2.20;;;;;;;4.70;95.46;101432.56;6086641;19;20010;-75
2023/11/25 03:32:20;;;;;;;3.25;1.85;;;;;;;4.60;97.07;101440.41;6084984;19;20002;-75
2023/11/25 03:34:25;;;;;;;8.07;1.90;;;;;;;4.66;97.49;101455.16;6086916;19;20643;-75
2023/11/25 03:36:34;;;;;;;8.32;2.70;;;;;;;4.81;96.62;101473.25;6082832;19;20259;-75
2023/11/25 03:38:39;;;;;;;6.35;1.65;;;;;;;5.04;95.47;101480.91;6076033;19;20002;-75
2023/11/25 03:40:44;;;;;;;7.45;1.50;;;;;;;5.15;100.00;101482.56;6086857;19;20011;-75
2023/11/25 03:42:49;;;;;;;4.65;1.73;;;;;;;5.08;100.00;101479.13;6087236;19;20037;-73
2023/11/25 03:44:54;;;;;;;4.38;1.02;;;;;;;4.99;100.00;101489.66;6087581;19;20006;-73
2023/11/25 03:47:03;;;;;;;4.88;1.42;;;;;;;4.95;100.00;101487.91;6085804;19;20020;-74
2023/11/25 03:49:09;;;;;;;5.22;1.98;;;;;;;4.96;100.00;101493.13;6083765;19;20002;-76
2023/11/25 03:51:15;;;;;;;3.88;1.98;;;;;;;4.69;100.00;101478.56;6083976;19;20010;-73
2023/11/25 03:53:20;;;;;;;2.13;1.17;;;;;;;4.60;100.00;101457.78;6077131;19;20013;-73
2023/11/25 03:55:25;;;;;;;4.68;1.30;;;;;;;4.52;100.00;101455.22;6086290;19;20045;-73
2023/11/25 03:57:30;;;;;;;4.60;1.25;;;;;;;4.55;100.00;101454.31;6085424;19;20351;-74
2023/11/25 03:59:38;;;;;;;3.33;1.38;;;;;;;4.56;100.00;101451.72;6082315;19;20110;-73
2023/11/25 04:01:43;;;;;;;4.57;1.25;;;;;;;4.55;100.00;101449.13;6082880;19;20018;-74
2023/11/25 04:03:51;;;;;;;3.67;1.35;;;;;;;4.55;100.00;101454.31;6085756;19;20006;-75
2023/11/25 04:05:57;;;;;;;3.28;1.63;;;;;;;4.62;100.00;101453.44;6085204;19;20467;-74
2023/11/25 04:08:02;;;;;;;3.42;1.15;;;;;;;4.75;100.00;101478.50;6086772;19;20103;-75
2023/11/25 04:10:15;;;;;;;4.07;1.23;;;;;;;4.86;100.00;101496.66;6085978;19;20466;-75
2023/11/25 04:12:21;;;;;;;4.30;1.30;;;;;;;5.03;100.00;101494.81;6087326;19;20014;-73
2023/11/25 04:14:28;;;;;;;2.05;0.80;;;;;;;5.06;100.00;101475.72;6086922;19;20510;-73
2023/11/25 04:16:33;;;;;;;4.35;1.23;;;;;;;4.98;100.00;101474.91;6087565;19;20078;-73
2023/11/25 04:18:38;;;;;;;2.60;0.60;;;;;;;4.97;100.00;101467.94;6079986;19;20048;-74
2023/11/25 04:20:46;;;;;;;6.82;1.30;;;;;;;4.89;100.00;101459.31;6086967;19;20015;-75
2023/11/25 04:22:51;;;;;;;2.53;0.90;;;;;;;4.77;100.00;101465.50;6081734;19;20006;-75
2023/11/25 04:24:57;;;;;;;3.63;1.48;;;;;;;4.79;100.00;101469.81;6085715;19;20045;-75
2023/11/25 04:27:02;;;;;;;0.70;0.70;;;;;;;4.75;100.00;101464.63;6083122;19;20018;-74
2023/11/25 04:29:07;;;;;;;3.10;0.85;;;;;;;4.68;100.00;101468.13;6083499;19;20018;-75
2023/11/25 04:31:13;;;;;;;1.33;1.25;;;;;;;4.63;100.00;101468.16;6080209;19;20007;-75
2023/11/25 04:33:18;;;;;;;1.95;1.00;;;;;;;4.62;100.00;101482.06;6083356;19;20019;-75
2023/11/25 04:35:23;;;;;;;2.65;1.02;;;;;;;4.64;100.00;101485.53;6086025;19;20013;-75
2023/11/25 04:37:31;;;;;;;1.20;1.10;;;;;;;4.61;100.00;101468.19;6085679;19;20020;-75
2023/11/25 04:39:39;;;;;;;5.15;1.13;;;;;;;4.63;100.00;101473.38;6084306;19;20033;-75
2023/11/25 04:41:45;;;;;;;4.20;1.20;;;;;;;4.64;100.00;101464.72;6082195;19;20037;-73
2023/11/25 04:43:50;;;;;;;8.05;1.80;;;;;;;4.64;100.00;101448.22;6083663;19;20510;-74
2023/11/25 04:45:54;;;;;;;2.35;0.75;;;;;;;4.63;100.00;101460.34;6081933;19;20353;-75
2023/11/25 04:47:59;;;;;;;7.10;1.35;;;;;;;4.61;100.00;101464.72;6084165;19;20017;-74
2023/11/25 04:50:04;;;;;;;3.28;0.98;;;;;;;4.61;100.00;101460.38;6078456;19;20010;-75
2023/11/25 04:52:10;;;;;;;2.53;0.73;;;;;;;4.64;100.00;101463.84;6079686;19;20010;-74
2023/11/25 04:54:15;;;;;;;3.15;1.05;;;;;;;4.62;100.00;101474.25;6081975;19;20006;-74
2023/11/25 04:56:20;;;;;;;7.18;1.40;;;;;;;4.60;100.00;101463.84;6085124;19;20033;-74
2023/11/25 04:58:27;;;;;;;5.00;1.38;;;;;;;4.58;100.00;101465.59;6083887;19;20015;-74
2023/11/25 05:00:34;;;;;;;4.50;1.30;;;;;;;4.48;100.00;101465.66;6082786;19;20014;-74
2023/11/25 05:02:41;;;;;;;2.00;0.95;;;;;;;4.46;100.00;101467.41;6084444;19;20010;-75
2023/11/25 05:04:47;;;;;;;2.00;1.17;;;;;;;4.44;100.00;101457.00;6080651;19;20355;-75
2023/11/25 05:06:52;;;;;;;1.00;0.95;;;;;;;4.33;100.00;101444.03;6083776;19;20041;-75
2023/11/25 05:08:57;;;;;;;0.70;0.70;;;;;;;4.27;100.00;101436.28;6078406;19;20010;-75
2023/11/25 05:11:05;;;;;;;1.55;0.82;;;;;;;4.18;100.00;101438.91;6082517;19;20007;-74
2023/11/25 05:13:08;;;;;;;1.60;0.88;;;;;;;4.12;100.00;101433.75;6083016;19;20010;-75
2023/11/25 05:15:14;;;;;;;2.20;1.05;;;;;;;4.07;100.00;101438.09;6084827;19;20015;-75
2023/11/25 05:17:21;;;;;;;3.85;1.20;;;;;;;4.13;100.00;101430.25;6081568;19;20007;-73
2023/11/25 05:19:26;;;;;;;3.25;1.10;;;;;;;4.21;100.00;101428.47;6086705;19;20011;-75
2023/11/25 05:21:32;;;;;;;3.63;1.38;;;;;;;4.18;100.00;101428.50;6085016;19;20278;-75
2023/11/25 05:23:36;;;;;;;4.03;1.40;;;;;;;4.28;100.00;101435.41;6085029;19;20016;-75
2023/11/25 05:25:42;;;;;;;4.22;1.35;;;;;;;4.33;100.00;101443.19;6085167;19;20014;-75
2023/11/25 05:27:53;;;;;;;3.60;1.05;;;;;;;4.64;100.00;101430.00;6083981;19;20432;-75
2023/11/25 05:29:58;;;;;;;3.60;1.90;;;;;;;4.71;100.00;101429.94;6082399;19;20007;-74
2023/11/25 05:32:02;;;;;;;7.80;2.17;;;;;;;4.70;100.00;101435.16;6077858;19;20073;-75
2023/11/25 05:34:08;;;;;;;2.28;1.55;;;;;;;4.92;100.00;101435.84;6083452;19;20549;-75
2023/11/25 05:36:13;;;;;;;7.65;2.38;;;;;;;5.24;100.00;101452.13;6082588;19;20028;-76
2023/11/25 05:38:19;;;;;;;5.20;1.80;;;;;;;5.47;100.00;101456.22;6083804;19;20372;-73
2023/11/25 05:40:24;;;;;;;1.20;0.95;;;;;;;5.28;100.00;101445.13;6083725;19;20293;-76
2023/11/25 05:42:30;;;;;;;1.85;0.80;;;;;;;5.05;100.00;101454.00;6089053;19;20025;-76
2023/11/25 05:44:37;;;;;;;2.67;1.60;;;;;;;4.95;100.00;101441.94;6088010;19;20006;-75
2023/11/25 05:46:42;;;;;;;2.25;0.77;;;;;;;4.89;100.00;101434.16;6087813;19;20011;-75
2023/11/25 05:48:47;;;;;;;4.32;1.00;;;;;;;4.82;100.00;101433.34;6087942;19;20026;-75
2023/11/25 05:50:52;;;;;;;6.07;1.52;;;;;;;4.78;100.00;101431.63;6086108;19;20006;-75
2023/11/25 05:52:57;;;;;;;3.17;1.25;;;;;;;4.88;100.00;101423.75;6078869;19;20569;-75
2023/11/25 05:55:02;;;;;;;2.25;0.85;;;;;;;4.74;100.00;101419.50;6088110;19;20006;-75
2023/11/25 05:57:08;;;;;;;2.47;1.00;;;;;;;4.73;100.00;101416.91;6087850;19;20003;-74
2023/11/25 05:59:11;;;;;;;2.33;1.00;;;;;;;4.62;100.00;101417.84;6088430;19;20015;-73
2023/11/25 06:01:18;;;;;;;;;;;;;;;4.58;100.00;101416.16;6087804;19;20086;-72
2023/11/25 06:03:24;;;;;;;6.03;1.95;;;;;;;4.60;100.00;101410.91;6087932;19;19986;-72
2023/11/25 06:05:30;;;;;;;4.45;1.20;;;;;;;4.57;100.00;101400.53;6087388;19;20007;-73
2023/11/25 06:07:35;;;;;;;6.38;0.90;;;;;;;4.53;100.00;101406.63;6084872;19;20007;-73
2023/11/25 06:09:41;;;;;;;1.77;0.95;;;;;;;4.40;100.00;101406.72;6088147;19;20233;-73
2023/11/25 06:11:45;;;;;;;1.40;1.13;;;;;;;4.36;100.00;101397.19;6089780;19;20513;-74
2023/11/25 06:13:50;;;;;;;2.35;1.13;;;;;;;4.26;100.00;101395.50;6087276;19;20014;-74
2023/11/25 06:15:52;;;;;;;7.70;1.63;;;;;;;4.25;100.00;101409.41;6087960;19;20014;-74
2023/11/25 06:18:00;;;;;;;3.30;1.83;;;;;;;4.24;100.00;101406.78;6087370;19;20110;-74
2023/11/25 06:20:07;;;;;;;5.47;1.42;;;;;;;4.23;100.00;101400.72;6086495;19;20305;-74
2023/11/25 06:22:10;;;;;;;1.17;1.05;;;;;;;4.17;100.00;101408.56;6083491;19;20018;-74
2023/11/25 06:24:17;;;;;;;3.50;1.08;;;;;;;4.09;100.00;101400.81;6085645;19;20007;-74
2023/11/25 06:26:22;;;;;;;3.35;1.00;;;;;;;4.06;100.00;101402.56;6081371;19;20021;-74
2023/11/25 06:28:27;;;;;;;6.50;1.50;;;;;;;4.01;100.00;101394.78;6087947;19;20014;-74
2023/11/25 06:30:33;;;;;;;4.72;1.73;;;;;;;4.00;100.00;101386.97;6087545;19;20003;-73
2023/11/25 06:32:38;;;;;;;1.52;1.08;;;;;;;3.99;100.00;101390.47;6081442;19;20010;-73
2023/11/25 06:34:46;;;;;;;2.72;2.08;;;;;;;4.16;100.00;101412.91;6086011;19;20003;-74
2023/11/25 06:36:52;;;;;;;5.38;1.15;;;;;;;4.32;100.00;101426.72;6087042;19;20440;-75
2023/11/25 06:38:56;;;;;;;5.38;1.52;;;;;;;4.79;100.00;101417.75;6082855;19;20007;-73
2023/11/25 06:41:04;;;;;;;6.57;1.83;;;;;;;4.97;100.00;101395.88;6086086;19;20423;-74
2023/11/25 06:43:12;;;;;;;8.13;1.85;;;;;;;5.04;100.00;101402.78;6088055;19;20078;-74
2023/11/25 06:45:21;;;;;;;2.17;0.95;;;;;;;5.05;100.00;101407.13;6087380;19;20091;-75
2023/11/25 06:47:29;;;;;;;2.97;1.70;;;;;;;5.02;100.00;101399.31;6085987;19;20013;-75
2023/11/25 06:49:35;;;;;;;6.78;1.75;;;;;;;5.12;100.00;101394.91;6085420;19;20018;-75
2023/11/25 06:51:44;;;;;;;2.05;1.15;;;;;;;5.16;100.00;101395.72;6084259;19;20086;-75
2023/11/25 06:53:49;;;;;;;4.72;1.50;;;;;;;5.13;100.00;101396.59;6079304;19;20015;-75
2023/11/25 06:55:53;;;;;;;2.95;1.50;;;;;;;5.07;100.00;101397.53;6085933;19;20003;-75
2023/11/25 06:57:58;;;;;;;6.90;1.73;;;;;;;5.06;100.00;101395.81;6085807;19;20010;-75
2023/11/25 07:00:01;;;;;;;7.55;2.90;;;;;;;5.24;100.00;101391.31;6085563;19;20443;-72
2023/11/25 07:02:09;;;;;;;3.72;1.77;;;;;;;5.31;100.00;101392.09;6084800;19;20121;-75
2023/11/25 07:04:18;;;;;;;17.35;2.03;;;;;;;5.28;100.00;101383.44;6084805;19;20740;-75
2023/11/25 07:06:23;;;;;;;5.25;2.08;;;;;;;5.33;100.00;101385.16;6085156;19;19999;-75
2023/11/25 07:08:32;;;;;;;7.18;1.83;;;;;;;5.42;100.00;101382.44;6085402;19;20049;-75
2023/11/25 07:10:34;;;;;;;7.57;1.67;;;;;;;5.66;100.00;101376.97;6082264;19;20014;-75
2023/11/25 07:12:41;;;;;;;2.75;1.80;;;;;;;5.72;100.00;101374.28;6087738;19;20034;-76
2023/11/25 07:14:46;;;;;;;5.43;1.33;;;;;;;5.89;100.00;101374.06;6085993;19;20290;-76
2023/11/25 07:16:52;;;;;;;7.55;1.80;;;;;;;5.94;100.00;101384.47;6086270;19;20007;-78
2023/11/25 07:18:57;;;;;;;3.00;1.38;;;;;;;6.10;100.00;101390.38;6083413;19;20025;-76
2023/11/25 07:20:59;;;;;;;2.38;1.48;;;;;;;6.10;100.00;101409.47;6086829;19;20010;-77
2023/11/25 07:23:04;;;;;;;5.55;1.30;;;;;;;6.06;100.00;101410.41;6084610;19;20335;-72
2023/11/25 07:25:12;;;;;;;3.63;1.48;;;;;;;5.75;100.00;101403.81;6083619;19;20116;-75
2023/11/25 07:27:18;;;;;;;8.10;1.67;;;;;;;5.57;100.00;101408.34;6085126;19;20511;-77
2023/11/25 07:29:26;;;;;;;3.55;1.35;;;;;;;5.53;100.00;101404.06;6082610;19;20014;-75
2023/11/25 07:31:32;;;;;;;4.78;1.40;;;;;;;5.50;100.00;101391.03;6083153;19;20601;-76
2023/11/25 07:33:38;;;;;;;6.97;1.48;;;;;;;5.49;100.00;101404.97;6085332;19;20010;-75
2023/11/25 07:35:43;;;;;;;6.50;1.60;;;;;;;5.45;100.00;101408.47;6086173;19;20006;-75
2023/11/25 07:37:48;;;;;;;8.57;2.22;;;;;;;5.39;100.00;101400.72;6085921;19;20015;-76
2023/11/25 07:39:53;;;;;;;9.70;2.70;;;;;;;5.41;100.00;101399.81;6085159;19;20011;-76
2023/11/25 07:42:01;;;;;;;9.70;2.30;;;;;;;5.38;100.00;101399.84;6085271;19;20078;-76
2023/11/25 07:44:07;;;;;;;4.22;1.85;;;;;;;5.38;100.00;101389.44;6084430;19;20014;-75
2023/11/25 07:46:12;;;;;;;4.95;1.67;;;;;;;5.48;100.00;101392.81;6082687;19;20011;-74
2023/11/25 07:48:17;;;;;;;5.57;1.60;;;;;;;5.49;100.00;101387.56;6080591;19;20042;-75
2023/11/25 07:50:21;;;;;;;3.67;1.48;;;;;;;5.49;100.00;101390.19;6084060;19;20027;-74
2023/11/25 07:52:27;;;;;;;5.50;1.20;;;;;;;5.58;100.00;101399.66;6082851;19;20013;-76
2023/11/25 07:54:32;;;;;;;0.68;0.68;;;;;;;5.65;100.00;101398.69;6085158;19;20373;-73
2023/11/25 07:56:37;;;;;;;2.55;0.90;;;;;;;5.67;100.00;101394.31;6084724;19;20010;-76
2023/11/25 07:58:45;;;;;;;5.97;1.27;;;;;;;5.76;100.00;101384.66;6084894;19;20320;-75
2023/11/25 08:00:50;;;;;;;4.50;1.52;;;;;;;5.85;100.00;101387.19;6084796;19;20720;-76
2023/11/25 08:02:56;;;;;;;1.42;0.82;;;;;;;5.83;100.00;101394.16;6084807;19;20017;-75
2023/11/25 08:05:01;;;;;;;6.18;1.40;;;;;;;5.86;100.00;101392.34;6071989;19;20089;-75
2023/11/25 08:07:07;;;;;;;5.75;1.63;;;;;;;5.93;100.00;101387.94;6083284;19;20743;-75
2023/11/25 08:09:15;;;;;;;9.00;1.63;;;;;;;6.01;100.00;101393.97;6081432;19;20015;-76
2023/11/25 08:11:27;;;;;;;6.22;1.77;;;;;;;6.10;100.00;101386.00;6085534;19;20011;-74
2023/11/25 08:13:33;;;;;;;7.95;1.20;;;;;;;6.04;100.00;101393.91;6083490;19;20477;-76
2023/11/25 08:15:41;;;;;;;3.75;1.15;;;;;;;6.12;100.00;101393.81;6084549;19;20003;-72
2023/11/25 08:17:46;;;;;;;3.63;1.55;;;;;;;6.07;100.00;101404.31;6082978;19;20002;-76
2023/11/25 08:19:51;;;;;;;6.65;1.42;;;;;;;6.15;100.00;101412.03;6082096;19;20017;-72
2023/11/25 08:21:56;;;;;;;9.13;2.13;;;;;;;6.20;100.00;101417.22;6083223;19;20052;-73
2023/11/25 08:24:01;;;;;;;7.78;1.60;;;;;;;6.24;100.00;101411.03;6078551;19;20188;-72
2023/11/25 08:26:20;;;;;;;1.25;1.10;;;;;;;6.30;100.00;101413.59;6083841;19;20006;-75
2023/11/25 08:28:25;;;;;;;6.72;1.92;;;;;;;6.27;100.00;101409.28;6082239;19;20041;-71
2023/11/25 08:30:30;;;;;;;2.22;0.90;;;;;;;6.24;100.00;101400.59;6083541;19;20452;-73
2023/11/25 08:32:39;;;;;;;5.80;1.58;;;;;;;6.28;100.00;101400.56;6082533;19;20066;-75
2023/11/25 08:34:44;;;;;;;3.67;1.40;;;;;;;6.25;100.00;101402.34;6081658;19;20051;-73
2023/11/25 08:36:55;;;;;;;7.00;2.10;;;;;;;6.29;100.00;101414.47;6083165;19;20022;-75
2023/11/25 08:39:01;;;;;;;5.65;1.85;;;;;;;6.24;100.00;101411.03;6085883;19;20467;-75
2023/11/25 08:41:18;;;;;;;11.07;2.08;;;;;;;6.26;100.00;101424.94;5984430;19;2005144;-75
2023/11/25 08:43:23;;;;;;;5.53;1.70;;;;;;;6.30;100.00;101435.34;6085462;19;20374;-74
2023/11/25 08:45:30;;;;;;;2.75;1.35;;;;;;;6.26;100.00;101432.78;6088234;19;20006;-74
2023/11/25 08:47:38;;;;;;;7.10;1.83;;;;;;;6.00;100.00;101423.53;6084405;19;20432;-76
2023/11/25 08:49:43;;;;;;;6.47;2.05;;;;;;;5.87;100.00;101422.81;6085487;19;20106;-74
2023/11/25 08:51:50;;;;;;;5.10;1.88;;;;;;;5.87;100.00;101416.69;6082295;19;20529;-74
2023/11/25 08:53:55;;;;;;;3.05;1.50;;;;;;;5.81;100.00;101409.81;6078140;19;20024;-75
2023/11/25 08:56:06;;;;;;;7.80;1.45;;;;;;;5.79;100.00;101401.13;6083838;19;20526;-74
2023/11/25 08:58:12;;;;;;;3.40;1.15;;;;;;;5.78;100.00;101409.00;6083444;19;20394;-75
2023/11/25 09:00:19;;;;;;;1.85;0.98;;;;;;;5.77;100.00;101404.66;6081940;19;20010;-74
2023/11/25 09:02:28;;;;;;;5.03;1.20;;;;;;;5.84;100.00;101403.69;6078716;19;20003;-75
2023/11/25 09:04:42;;;;;;;1.50;1.15;;;;;;;5.97;100.00;101407.06;6081653;19;20007;-73
2023/11/25 09:06:48;;;;;;;2.80;1.17;;;;;;;5.94;100.00;101402.75;6083762;19;20018;-74
2023/11/25 09:08:53;;;;;;;3.35;1.42;;;;;;;5.99;100.00;101407.91;6082229;19;20023;-75
2023/11/25 09:11:01;;;;;;;2.03;1.23;;;;;;;5.96;100.00;101406.19;6077214;19;20006;-75
2023/11/25 09:13:08;;;;;;;3.45;1.60;;;;;;;5.97;100.00;101420.97;6080264;19;20007;-74
2023/11/25 09:15:13;;;;;;;4.30;1.60;;;;;;;6.03;100.00;101427.84;6080503;19;20073;-75
2023/11/25 09:17:20;;;;;;;6.43;1.77;;;;;;;6.13;100.00;101424.25;6078641;19;20530;-75
2023/11/25 09:19:27;;;;;;;10.48;1.40;;;;;;;6.41;100.00;101436.94;6081219;19;20006;-72
2023/11/25 09:21:35;;;;;;;12.90;1.50;;;;;;;6.50;100.00;101422.03;6080044;19;20414;-75
2023/11/25 09:23:40;;;;;;;4.00;1.38;;;;;;;6.50;100.00;101422.03;6085301;19;20091;-76
2023/11/25 09:25:47;;;;;;;9.90;3.30;;;;;;;6.59;100.00;101418.41;6087257;19;20014;-77
2023/11/25 09:27:52;;;;;;;4.00;1.38;;;;;;;6.68;100.00;101412.16;6083929;19;20007;-76
2023/11/25 09:30:02;;;;;;;7.25;1.73;;;;;;;6.70;100.00;101423.47;6084393;19;20086;-73
2023/11/25 09:32:09;;;;;;;17.52;2.25;;;;;;;6.79;100.00;101420.69;6080008;19;20015;-73
2023/11/25 09:34:15;;;;;;;4.53;1.95;;;;;;;6.77;100.00;101409.44;6081097;19;20042;-77
2023/11/25 09:36:22;;;;;;;3.78;2.05;;;;;;;6.84;100.00;101418.88;6086157;19;20027;-73
2023/11/25 09:38:32;;;;;;;5.55;1.60;;;;;;;6.91;100.00;101419.66;6083450;19;20553;-76
2023/11/25 09:40:39;;;;;;;16.55;2.08;;;;;;;6.87;100.00;101413.59;6084666;19;20026;-77
2023/11/25 09:42:45;;;;;;;3.75;1.80;;;;;;;6.95;100.00;101416.97;6082829;19;20013;-75
2023/11/25 09:44:51;;;;;;;6.25;1.90;;;;;;;7.03;100.00;101416.84;6082869;19;20518;-74
2023/11/25 09:46:56;;;;;;;15.95;2.00;;;;;;;7.10;100.00;101420.22;6078680;19;20573;-73
2023/11/25 09:49:01;;;;;;;7.45;1.95;;;;;;;7.21;100.00;101419.16;6082700;19;20090;-76